Date,TemperatureHighF,TemperatureAvgF,TemperatureLowF,DewpointHighF,DewpointAvgF,DewpointLowF,HumidityHigh,HumidityAvg,HumidityLow,PressureMaxIn,PressureMinIn,WindSpeedMaxMPH,WindSpeedAvgMPH,GustSpeedMaxMPH,PrecipitationSumIn
2014-1-1,8,4,-1,1,-3,-7,78,74,69,30.49,30.40,9,3,13,0.00
2014-1-2,11,4,-8,3,-1,-10,86,77,67,30.52,30.36,13,4,15,0.00
2014-1-3,18,4,-13,14,0,-15,88,81,69,30.51,29.85,19,6,27,0.00
2014-1-4,33,24,14,28,12,-100,100,77,1,30.16,29.75,18,6,24,0.00
2014-1-5,14,3,-10,8,-7,-100,100,68,56,30.27,30.15,18,7,21,0.00
2014-1-6,-10,-15,-19,-16,-20,-24,76,69,60,30.32,30.19,16,6,20,0.00
2014-1-7,2,-7,-16,-7,-13,-20,80,72,58,30.41,30.30,10,2,14,0.00
2014-1-8,9,-3,-12,-2,-8,-14,87,77,60,30.62,30.39,5,1,0,0.00
2014-1-9,22,3,-16,20,-5,-100,92,82,1,30.63,30.21,6,2,0,0.00
2014-1-10,36,30,22,36,-36,-100,98,74,1,30.20,29.50,13,3,16,0.09
2014-1-11,36,32,28,35,18,-100,98,89,1,29.79,29.45,11,4,15,0.00
2014-1-12,41,34,25,34,26,-100,95,84,66,29.81,29.57,13,5,21,0.00
2014-1-13,41,34,25,34,30,21,91,83,71,29.76,29.55,16,2,16,0.00
2014-1-14,34,26,14,32,17,-100,95,88,1,29.97,29.54,19,6,23,0.00
2014-1-15,18,13,10,14,4,-100,85,78,1,30.14,29.74,14,5,18,0.00
2014-1-16,34,24,10,29,-31,-100,100,70,1,29.77,29.47,17,6,21,0.00
2014-1-17,19,13,8,14,-16,-100,86,73,1,30.02,29.77,10,3,14,0.00
2014-1-18,18,9,4,14,-13,-100,92,83,1,29.99,29.83,7,1,0,0.00
2014-1-19,34,25,9,34,-62,-100,100,70,1,29.91,29.56,10,4,17,0.01
2014-1-20,34,18,5,29,8,-100,90,82,1,30.30,29.68,13,3,19,0.00
2014-1-21,5,-1,-7,-3,-7,-100,83,72,61,30.45,30.25,15,3,19,0.00
2014-1-22,11,4,-3,6,-2,-9,86,77,67,30.31,29.97,20,5,20,0.00
2014-1-23,6,-2,-8,-4,-8,-13,77,71,59,30.68,30.31,15,6,20,0.00
2014-1-24,30,13,-9,28,6,-13,93,75,64,30.55,29.47,17,7,24,0.00
2014-1-25,31,13,4,28,-20,-100,100,57,1,29.91,29.46,22,7,29,0.00
2014-1-26,24,11,2,16,-33,-100,100,68,1,29.93,29.44,20,5,28,0.00
2014-1-27,2,-6,-12,-5,-13,-17,78,66,53,30.50,29.94,15,6,24,0.00
2014-1-28,2,-6,-15,-8,-12,-18,80,70,58,30.50,30.28,11,3,16,0.00
2014-1-29,23,10,-4,23,-38,-100,100,70,51,30.29,29.92,13,5,20,0.00
2014-1-30,30,25,15,27,-38,-100,100,74,1,29.99,29.60,16,7,22,0.00
2014-1-31,15,8,2,10,0,-100,100,76,62,30.23,30.00,7,1,0,0.00
2014-2-1,18,13,5,14,-1,-100,88,80,1,30.20,30.03,9,1,16,0.00
2014-2-2,17,7,-6,16,-4,-100,100,80,55,30.41,30.20,7,1,0,0.00
2014-2-3,20,6,-12,7,0,-14,89,73,54,30.46,30.39,8,2,0,0.00
2014-2-4,18,11,0,12,6,-3,90,80,68,30.52,30.30,9,1,13,0.00
2014-2-5,18,14,2,12,8,-2,89,78,68,30.51,30.27,14,5,17,0.00
2014-2-6,8,0,-7,-2,-6,-9,86,75,58,30.50,30.40,12,3,17,0.00
2014-2-7,14,4,-4,1,-3,-7,83,71,51,30.41,30.34,14,3,14,0.00
2014-2-8,15,6,-8,9,3,-10,90,85,77,30.38,30.21,7,1,0,0.00
2014-2-9,18,8,-1,8,2,-7,91,77,58,30.41,30.20,14,2,14,0.00
2014-2-10,9,0,-6,-3,-7,-10,78,69,56,30.58,30.41,7,2,0,0.00
2014-2-11,13,1,-13,0,-6,-15,87,70,50,30.61,30.41,9,2,0,0.00
2014-2-12,18,10,1,13,6,-5,92,80,71,30.41,30.06,10,2,13,0.00
2014-2-13,29,21,15,25,16,10,90,81,69,30.06,29.54,17,5,19,0.00
2014-2-14,22,14,7,12,7,1,88,76,64,30.06,29.67,13,4,16,0.00
2014-2-15,19,11,-5,14,5,-7,91,77,61,30.16,30.02,8,2,0,0.00
2014-2-16,23,16,12,14,12,7,92,81,66,30.34,30.03,7,2,0,0.00
2014-2-17,25,22,16,22,18,-100,93,89,81,30.31,29.76,19,4,24,0.00
2014-2-18,45,32,20,32,11,-100,100,75,1,29.94,29.63,13,3,17,0.13
2014-2-19,47,36,27,39,27,24,100,70,43,29.96,29.69,7,2,0,0.00
2014-2-20,40,34,33,39,31,28,96,87,81,29.91,29.10,19,6,26,0.49
2014-2-21,35,23,18,31,16,12,87,75,61,29.82,29.18,22,9,29,0.00
2014-2-22,30,20,12,14,10,-100,78,66,46,30.14,29.82,13,4,17,0.00
2014-2-23,25,14,7,24,4,-100,100,67,49,30.28,30.14,15,4,20,0.00
2014-2-24,22,14,6,20,5,1,100,66,50,30.34,30.26,13,4,18,0.00
2014-2-25,14,9,1,7,0,-6,88,67,49,30.32,30.21,13,4,18,0.00
2014-2-26,14,4,-6,11,-4,-10,89,67,46,30.33,29.70,17,6,25,0.00
2014-2-27,9,1,-7,0,-10,-13,79,56,39,30.27,29.77,20,5,25,0.00
2014-2-28,21,10,-9,17,2,-100,90,71,60,30.27,30.05,12,3,18,0.00
2014-3-1,18,10,4,16,5,-4,90,78,65,30.48,30.13,12,6,19,0.00
2014-3-2,7,1,-4,-3,-10,-14,71,56,41,30.60,30.47,13,6,16,0.00
2014-3-3,18,5,-10,3,-6,-15,72,57,39,30.64,30.42,8,2,0,0.00
2014-3-4,22,15,9,12,9,3,88,76,62,30.42,30.26,6,2,0,0.00
2014-3-5,23,15,1,14,9,-2,89,77,61,30.55,30.34,5,1,0,0.00
2014-3-6,29,16,0,26,9,-100,100,79,60,30.53,30.10,12,2,14,0.00
2014-3-7,44,32,18,32,21,-100,100,76,57,30.10,29.88,10,4,14,0.10
2014-3-8,34,29,19,30,21,14,85,74,58,30.29,30.09,7,2,13,0.00
2014-3-9,39,29,17,34,22,13,86,76,62,30.27,29.78,17,4,20,0.00
2014-3-10,58,46,37,39,36,33,86,69,48,29.78,29.62,10,2,15,0.00
2014-3-11,43,40,34,38,35,31,95,83,70,29.85,29.68,7,1,12,0.03
2014-3-12,34,26,12,31,18,7,88,72,53,30.17,29.83,13,2,16,0.00
2014-3-13,38,26,9,34,20,5,92,78,69,30.16,29.79,14,4,20,0.00
2014-3-14,49,42,37,36,33,29,91,72,55,29.85,29.55,18,5,24,0.00
2014-3-15,36,32,25,30,22,20,83,69,54,30.37,29.85,16,3,22,0.00
2014-3-16,27,19,9,20,10,3,81,69,54,30.50,30.24,9,2,13,0.00
2014-3-17,36,24,9,25,15,6,89,69,42,30.24,29.80,12,3,18,0.00
2014-3-18,47,36,27,35,30,24,90,80,62,29.89,29.73,12,4,18,0.06
2014-3-19,38,35,33,35,32,24,97,89,68,30.01,29.62,16,4,20,0.20
2014-3-20,44,34,23,29,26,21,92,73,51,30.09,30.00,9,2,0,0.00
2014-3-21,50,38,24,41,31,21,92,75,62,30.05,29.74,18,4,26,0.00
2014-3-22,38,30,20,30,20,9,83,67,43,30.43,29.92,17,7,26,0.00
2014-3-23,28,20,13,10,8,5,73,60,44,30.53,30.42,14,5,18,0.00
2014-3-24,35,25,15,25,15,8,93,66,44,30.45,30.10,15,3,22,0.00
2014-3-25,25,19,12,22,9,5,93,67,47,30.31,30.08,16,5,22,0.00
2014-3-26,37,24,7,24,14,3,88,67,49,30.36,29.94,17,4,22,0.00
2014-3-27,47,39,35,45,36,24,96,88,57,29.93,29.42,14,5,19,0.34
2014-3-28,42,35,31,41,31,28,97,85,69,30.23,29.44,17,4,23,0.10
2014-3-29,46,37,27,32,28,25,94,73,53,30.33,30.23,8,1,0,0.00
2014-3-30,57,42,26,40,31,20,81,66,50,30.30,30.00,18,4,19,0.00
2014-3-31,65,54,43,47,41,36,82,63,46,30.02,29.59,28,7,28,0.46
2014-4-1,55,36,26,45,26,20,81,68,53,30.13,29.58,17,6,23,0.00
2014-4-2,51,36,21,33,26,19,95,69,45,30.25,30.13,7,1,0,0.12
2014-4-3,40,37,35,33,28,24,92,73,64,30.14,29.69,12,3,19,0.00
2014-4-4,38,34,33,34,32,28,97,89,79,30.05,29.49,19,5,29,0.10
2014-4-5,53,40,26,32,27,24,93,63,38,30.23,30.05,11,2,13,0.00
2014-4-6,59,47,34,40,34,28,80,62,47,30.15,29.94,13,4,17,0.00
2014-4-7,62,50,39,46,40,34,94,71,47,29.94,29.66,8,2,14,0.34
2014-4-8,57,47,38,43,38,31,93,73,45,29.97,29.69,14,4,18,2.09
2014-4-9,63,48,26,36,31,23,93,55,30,30.03,29.73,14,4,19,2.79
2014-4-10,64,55,40,41,31,21,62,42,21,29.97,29.63,17,4,20,5.51
2014-4-11,67,52,38,39,32,24,73,47,26,30.04,29.93,15,2,19,1.54
2014-4-12,61,50,45,49,41,32,94,72,58,30.03,29.69,18,3,31,1.65
2014-4-13,52,47,42,50,46,41,98,96,90,29.81,29.53,12,2,24,2.80
2014-4-14,42,32,26,40,29,21,97,90,80,30.08,29.51,17,8,24,0.33
2014-4-15,36,28,18,22,18,15,92,67,47,30.25,30.08,10,2,16,0.00
2014-4-16,51,40,27,34,28,19,81,63,49,30.29,30.07,17,6,28,0.01
2014-4-17,55,46,34,42,36,30,89,69,58,30.32,30.03,19,5,23,0.00
2014-4-18,57,42,27,36,32,25,96,70,40,30.42,30.32,10,2,13,0.00
2014-4-19,67,49,33,43,35,27,80,60,37,30.42,30.19,15,4,19,1.49
2014-4-20,76,61,53,55,47,40,90,60,38,30.20,29.97,12,3,18,4.26
2014-4-21,69,61,52,60,54,39,93,80,59,29.97,29.79,14,2,20,6.10
2014-4-22,57,47,38,39,32,28,77,58,34,30.13,29.88,23,6,24,0.00
2014-4-23,57,43,29,35,31,26,93,64,38,30.22,30.06,9,2,0,0.14
2014-4-24,55,45,35,48,40,30,94,83,69,30.14,29.66,14,3,18,0.37
2014-4-25,66,54,42,49,41,36,96,67,34,29.86,29.70,17,4,21,1.80
2014-4-26,53,45,36,40,35,31,85,69,55,30.08,29.86,8,3,15,0.00
2014-4-27,52,44,40,41,37,31,90,76,53,30.11,29.86,18,4,22,0.30
2014-4-28,49,44,41,43,40,36,92,83,72,29.88,29.64,19,6,23,0.51
2014-4-29,50,49,48,49,47,47,96,95,94,29.64,29.61,5,2,0,0.44
2014-4-30,49,46,42,47,43,38,97,89,77,29.76,29.64,10,3,15,0.02
2014-5-1,50,44,39,45,41,38,96,90,75,29.82,29.65,8,2,14,0.06
2014-5-2,53,48,44,46,43,41,95,85,70,29.82,29.64,9,2,14,0.02
2014-5-3,63,53,44,45,41,36,96,67,38,29.89,29.64,17,5,27,0.00
2014-5-4,61,51,43,37,32,27,75,51,29,30.10,29.90,11,3,16,1.59
2014-5-5,61,50,42,41,36,32,82,61,39,30.08,29.97,11,2,14,0.00
2014-5-6,64,51,37,46,39,32,86,65,47,30.07,29.91,13,3,17,1.31
2014-5-7,62,54,47,52,46,36,88,75,64,29.92,29.79,13,3,17,0.01
2014-5-8,84,70,52,67,60,49,93,73,45,29.81,29.68,12,4,24,3.04
2014-5-9,72,61,50,63,53,45,90,75,63,29.83,29.58,16,5,19,0.63
2014-5-10,74,59,41,49,45,39,95,62,35,29.96,29.84,8,1,0,0.08
2014-5-11,79,66,56,66,56,45,93,71,56,29.92,29.84,11,2,22,0.78
2014-5-12,72,66,63,68,64,61,96,93,86,29.87,29.76,11,4,14,0.16
2014-5-15,53,48,42,40,38,35,78,69,51,30.08,30.01,8,2,12,0.12
2014-5-16,51,45,38,37,33,30,91,66,46,30.10,30.05,8,1,0,0.00
2014-5-17,61,51,36,37,34,31,84,55,33,30.14,30.08,9,2,16,0.00
2014-5-18,72,60,47,43,38,35,64,46,30,30.19,30.11,12,3,13,1.88
2014-5-19,65,57,49,52,46,42,85,69,54,30.19,29.84,14,4,25,0.18
2014-5-20,87,72,59,68,61,49,90,70,45,29.90,29.78,9,2,12,4.81
2014-5-21,83,70,56,66,56,43,98,65,26,30.00,29.78,16,4,19,1.57
2014-5-22,73,62,51,51,48,47,87,63,40,30.14,30.00,12,3,15,0.95
2014-5-23,73,61,44,54,48,42,94,64,44,30.23,30.14,8,1,12,0.00
2014-5-24,76,63,43,50,46,41,91,58,34,30.25,30.12,9,1,13,0.00
2014-5-25,84,70,47,56,51,44,91,55,31,30.14,29.97,9,2,18,0.00
2014-5-26,85,74,68,70,65,56,93,75,55,29.99,29.87,11,2,19,0.48
2014-5-27,85,71,61,73,67,60,96,88,53,29.97,29.84,7,2,17,1.06
2014-5-28,76,65,54,60,54,49,96,70,47,30.09,29.91,6,1,0,0.00
2014-5-29,83,67,52,65,56,49,91,70,43,30.15,30.07,11,1,12,0.00
2014-5-30,85,69,51,63,56,49,97,66,35,30.20,30.11,9,1,12,0.00
2014-5-31,88,75,59,61,56,52,78,55,32,30.17,30.00,12,3,14,0.00
2014-6-1,88,76,69,72,64,56,97,69,51,30.03,29.77,17,4,22,1.42
2014-6-2,81,74,65,70,67,60,97,80,59,29.83,29.69,13,4,17,1.15
2014-6-3,77,69,61,60,56,52,81,64,46,29.96,29.77,14,3,16,0.00
2014-6-4,74,66,56,63,59,54,94,80,65,29.94,29.79,5,1,0,0.10
2014-6-5,79,67,51,57,52,48,99,63,36,30.01,29.91,10,1,0,0.00
2014-6-6,83,72,61,59,54,49,74,55,40,29.99,29.92,7,1,13,0.00
2014-6-7,82,68,56,64,56,47,93,67,47,29.98,29.85,15,2,21,0.29
2014-6-8,75,65,57,60,55,44,95,72,46,30.07,29.91,10,2,15,0.00
2014-6-9,79,64,48,62,53,44,88,69,52,30.07,29.93,4,0,0,0.00
2014-6-10,70,64,56,58,54,48,79,70,61,29.98,29.84,4,0,0,0.00
2014-6-11,73,64,56,63,58,54,93,81,67,29.84,29.74,12,1,13,0.03
2014-6-12,75,65,52,65,55,47,98,73,51,29.88,29.73,13,3,16,0.00
2014-6-13,74,62,52,48,43,38,80,52,28,30.01,29.88,16,4,21,0.00
2014-6-14,79,67,48,54,49,44,89,55,34,30.08,29.89,12,3,21,0.00
2014-6-15,84,72,61,67,58,49,75,62,49,29.93,29.71,19,5,26,0.00
2014-6-16,87,76,60,70,62,58,94,65,30,30.01,29.78,9,2,15,0.00
2014-6-17,86,75,67,71,67,65,97,78,54,29.88,29.67,12,2,18,0.77
2014-6-18,80,72,62,73,67,60,97,85,68,30.02,29.78,21,2,30,0.98
2014-6-19,75,68,64,69,65,62,97,92,79,30.12,29.99,8,2,16,0.75
2014-6-20,84,73,64,72,68,63,98,87,60,30.00,29.90,8,2,0,1.66
2014-6-21,83,70,63,72,66,62,99,89,61,29.96,29.84,8,2,0,0.02
2014-6-22,82,72,62,72,65,-100,99,86,1,29.92,29.80,8,1,0,0.22
2014-6-23,83,74,65,71,68,64,97,83,60,29.85,29.77,6,1,0,1.31
2014-6-24,84,75,65,69,66,-100,98,76,48,29.89,29.82,9,2,0,0.00
2014-6-25,77,69,63,68,65,61,96,88,73,30.04,29.89,4,0,0,0.00
2014-6-26,82,70,60,68,63,59,97,81,60,30.09,29.97,7,1,0,0.00
2014-6-27,87,76,63,71,66,60,91,74,57,30.01,29.87,13,4,17,3.04
2014-6-28,86,78,70,75,71,67,91,79,65,29.96,29.81,17,5,22,0.00
2014-6-29,83,75,66,73,69,64,97,81,64,29.90,29.76,14,4,19,1.13
2014-6-30,87,73,66,77,42,-100,97,81,1,29.82,29.54,14,4,21,1.45
2014-7-1,78,70,64,67,47,-100,96,77,1,29.74,29.59,12,4,22,0.02
2014-7-2,66,62,58,63,-44,-100,100,71,1,30.04,29.74,11,3,15,0.00
2014-7-3,75,64,49,55,11,-100,100,67,1,30.20,30.03,10,2,12,0.01
2014-7-4,80,68,52,60,28,-100,100,59,1,30.31,30.20,6,1,0,0.00
2014-7-5,76,68,59,62,10,-100,100,72,1,30.24,30.00,12,4,19,0.31
2014-7-6,80,73,63,75,68,60,92,85,77,30.00,29.66,15,3,15,7.93
2014-7-7,84,76,66,73,64,-100,94,74,1,29.74,29.60,11,2,16,5.55
2014-7-8,78,70,61,68,9,-100,95,68,1,29.82,29.58,15,4,19,0.27
2014-7-9,75,65,56,60,-16,-100,100,60,1,30.06,29.82,14,3,19,0.00
2014-7-10,80,68,51,69,46,51,100,59,1,30.16,30.06,8,2,12,2.89
2014-7-11,77,70,61,63,52,58,100,69,1,30.18,30.05,10,3,14,0.00
2014-7-12,78,73,66,74,68,63,96,85,76,30.07,29.82,12,2,16,0.13
2014-7-13,82,71,63,69,53,58,97,73,1,29.92,29.85,12,3,17,0.66
2014-7-14,70,61,55,60,8,59,100,36,1,29.89,29.83,6,1,0,0.00
2014-7-15,70,58,56,54,8,53,87,83,70,29.97,29.84,2,0,0,0.00
2014-7-16,75,60,46,65,24,47,100,46,1,30.06,29.97,9,1,0,0.03
2014-7-17,78,63,47,59,34,46,100,60,1,30.10,30.04,5,1,18,0.00
2014-7-18,80,69,53,67,44,51,100,57,1,30.15,30.06,8,2,0,0.00
2014-7-19,80,70,59,67,51,57,100,61,1,30.08,29.99,9,2,13,0.00
2014-7-20,82,72,60,66,51,57,90,65,1,30.04,29.95,10,3,13,0.29
2014-7-21,87,77,65,71,67,62,90,74,57,30.05,29.97,11,4,16,0.00
2014-7-22,92,80,72,80,72,65,89,76,61,30.02,29.85,12,4,18,0.00
2014-7-23,79,70,57,65,31,55,100,66,1,30.17,30.03,12,1,13,0.00
2014-7-24,79,66,51,59,34,50,100,51,1,30.18,29.99,6,1,0,0.00
2014-7-25,74,66,61,68,34,55,100,84,1,30.04,29.86,16,3,17,0.00
2014-7-26,81,72,63,72,64,61,96,83,1,29.88,29.74,8,1,12,0.00
2014-7-27,77,70,61,69,60,56,100,79,1,29.98,29.72,15,4,22,0.03
2014-7-28,73,64,53,63,35,51,100,67,1,30.13,29.98,12,4,17,0.00
2014-7-29,79,66,55,68,37,53,100,59,1,30.07,29.98,13,2,22,0.00
2014-7-30,76,65,57,62,28,53,100,72,1,30.06,29.99,7,2,0,0.00
2014-7-31,81,70,61,64,36,57,100,58,1,30.01,29.97,11,1,13,0.00
2014-8-1,85,69,56,72,22,59,100,67,1,30.11,30.00,9,1,16,0.38
2014-8-2,85,71,54,67,37,61,95,53,1,30.14,30.06,5,0,0,0.11
2014-8-3,84,73,60,69,43,60,95,77,54,30.12,30.03,9,1,13,0.15
2014-8-4,80,68,63,70,24,62,98,62,1,30.08,30.02,11,1,23,0.91
2014-8-5,81,69,63,69,42,63,99,70,1,30.09,30.02,5,0,0,0.00
2014-8-6,82,70,56,64,37,55,99,52,1,30.09,30.03,5,0,0,0.00
2014-8-7,83,70,55,63,34,53,100,56,1,30.11,30.02,9,1,14,0.00
2014-8-8,84,71,56,67,35,55,100,63,1,30.10,30.04,10,1,16,0.00
2014-8-9,83,71,59,66,34,54,100,53,1,30.12,30.06,7,1,13,0.00
2014-8-10,85,70,58,67,39,55,90,59,1,30.08,29.97,8,0,0,0.00
2014-8-11,82,70,62,70,44,59,100,63,1,29.98,29.78,13,2,18,0.26
2014-8-12,75,65,57,65,31,53,100,53,1,29.98,29.83,16,6,22,0.00
2014-8-13,81,67,54,65,33,51,100,72,1,30.05,29.97,10,2,14,0.00
2014-8-14,74,62,49,61,26,48,100,47,1,30.14,30.04,6,1,0,0.00
2014-8-15,80,65,45,64,50,44,100,74,1,30.08,29.93,9,2,12,0.00
2014-8-16,85,73,62,71,59,60,97,72,1,29.93,29.84,7,1,0,0.01
2014-8-17,80,69,62,66,44,55,100,66,1,30.02,29.92,8,1,0,0.00
2014-8-18,84,71,59,71,44,58,96,61,1,29.94,29.70,11,3,14,0.00
2014-8-19,82,72,64,70,60,63,97,77,1,29.77,29.64,10,2,16,0.78
2014-8-20,86,73,60,71,48,59,97,63,1,29.92,29.77,11,1,0,0.00
2014-8-21,77,72,66,73,65,65,97,90,1,29.97,29.86,9,2,13,0.29
2014-8-22,91,79,72,78,74,71,99,86,60,29.94,29.86,7,1,0,0.00
2014-8-23,80,75,73,75,73,70,98,95,83,29.99,29.88,5,1,0,0.00
2014-8-24,86,77,70,78,72,69,96,87,73,29.99,29.91,10,3,15,0.00
2014-8-25,78,74,68,76,71,66,97,92,81,30.05,29.91,13,2,21,0.57
2014-8-26,78,70,62,70,58,59,97,75,1,30.16,29.98,9,2,17,0.00
2014-8-27,78,68,58,63,41,58,96,57,1,30.17,30.08,5,0,0,0.01
2014-8-28,76,66,55,64,41,56,100,66,1,30.14,30.00,8,2,13,0.81
2014-8-29,85,74,64,75,68,60,97,83,1,30.00,29.78,11,3,16,1.15
2014-8-30,79,72,66,71,69,65,96,88,72,29.88,29.74,14,3,14,0.36
2014-8-31,85,73,60,72,64,60,99,80,1,29.92,29.77,10,2,13,1.15
2014-9-1,77,71,63,71,66,60,95,85,72,29.83,29.62,11,2,14,0.00
2014-9-2,78,66,56,64,43,56,98,63,1,29.95,29.83,9,1,0,0.01
2014-9-3,83,70,56,67,42,56,98,66,1,30.00,29.83,10,3,18,0.17
2014-9-4,85,76,67,75,70,65,95,82,68,29.89,29.79,17,6,24,0.76
2014-9-5,79,71,59,75,64,55,92,79,57,30.11,29.81,12,4,19,0.00
2014-9-6,75,62,52,61,30,51,100,60,1,30.19,30.10,9,2,13,0.00
2014-9-7,81,64,50,67,30,53,100,62,1,30.19,30.08,5,0,0,3.11
2014-9-8,76,66,54,68,37,52,100,51,1,30.10,29.94,11,2,17,0.00
2014-9-9,80,69,58,67,51,56,92,61,1,29.95,29.80,7,2,12,0.01
2014-9-10,74,65,56,71,49,54,97,90,1,29.92,29.46,17,5,26,0.56
2014-9-11,56,56,45,44,0,44,100,90,1,30.32,29.93,13,3,19,0.00
2014-9-12,45,45,45,-100,0,200,1,1,1,30.41,30.30,8,1,0,0.18
2014-9-13,57,47,45,-100,0,200,100,15,1,30.38,30.29,9,1,13,0.01
2014-9-14,66,57,53,66,2,49,100,60,1,30.32,30.13,10,2,16,0.00
2014-9-15,61,58,45,-100,0,200,92,65,59,30.20,30.12,8,1,12,0.26
2014-9-16,64,46,42,61,0,46,100,93,55,30.23,30.08,7,1,0,0.00
2014-9-17,71,53,43,54,14,49,100,54,1,30.07,29.96,7,1,0,0.00
2014-9-18,68,57,49,58,9,55,100,49,1,30.18,30.03,7,1,0,0.00
2014-9-19,66,56,52,57,1,56,100,5,1,30.15,30.08,9,3,12,0.01
2014-9-20,77,71,61,68,64,59,95,78,64,29.80,29.68,18,3,20,0.11
2014-9-21,64,57,52,63,6,47,100,30,1,30.17,29.71,16,5,22,0.00
2014-9-22,69,52,38,53,13,49,100,35,1,30.28,30.18,8,1,13,0.00
2014-9-23,75,63,57,56,22,51,100,81,45,30.32,30.23,7,1,0,0.00
2014-9-24,74,62,53,59,32,50,100,63,1,30.33,30.23,8,1,13,0.00
2014-9-25,79,65,52,67,34,50,100,52,1,30.28,30.19,6,1,0,0.00
2014-9-26,81,67,57,68,33,55,100,70,42,30.26,30.17,9,1,0,0.00
2014-9-27,83,68,57,62,35,53,100,71,1,30.25,30.13,7,1,12,0.00
2014-9-28,82,67,56,62,27,58,85,66,1,30.17,30.03,3,0,0,0.00
2014-9-29,81,65,57,64,19,55,87,78,1,30.04,29.92,17,2,17,0.06
2014-9-30,57,57,57,-100,0,200,87,87,87,30.07,30.01,5,1,0,0.00
2014-10-1,69,61,57,66,14,54,100,81,63,30.03,29.84,10,3,14,0.00
2014-10-2,71,64,59,66,32,61,93,65,1,29.85,29.57,8,1,13,0.09
2014-10-3,64,58,58,62,3,60,93,6,1,29.75,29.53,17,6,23,0.69
2014-10-4,58,40,36,40,14,31,100,89,1,29.76,29.66,14,4,19,0.08
2014-10-5,42,42,42,-100,0,200,92,92,92,29.74,29.58,12,2,13,0.00
2014-10-6,57,48,42,56,0,36,100,94,47,29.59,29.53,11,2,17,0.00
2014-10-7,63,58,56,-100,0,200,100,100,100,29.83,29.55,13,2,16,0.00
2014-10-8,64,47,41,63,1,38,100,31,1,30.04,29.83,19,3,22,0.00
2014-10-9,54,40,36,44,2,32,100,90,1,30.19,30.04,11,2,13,0.00
2014-10-10,50,37,36,42,1,33,100,40,1,30.24,30.16,7,0,0,0.00
2014-10-11,59,40,28,51,2,26,100,67,1,30.32,30.17,6,1,0,0.00
2014-10-12,62,49,37,49,2,41,100,81,1,30.17,29.88,17,2,17,0.06
2014-10-13,61,55,50,53,0,52,97,24,1,29.88,29.51,6,1,0,1.49
2014-10-14,62,55,50,59,1,55,96,8,1,29.73,29.40,12,4,23,0.17
2014-10-15,52,50,48,50,2,48,97,17,1,29.91,29.72,13,4,17,0.03
2014-10-16,66,55,49,66,5,48,100,59,1,29.88,29.57,7,1,12,0.00
2014-10-17,56,54,46,42,1,42,100,84,1,29.92,29.54,15,4,20,0.00
2014-10-18,48,44,35,48,10,32,100,65,1,30.23,29.92,13,3,17,0.00
2014-10-19,53,44,35,46,0,45,100,51,1,30.21,29.83,13,3,18,0.00
2014-10-20,59,51,46,51,5,43,100,59,1,30.05,29.79,15,3,19,0.00
2014-10-21,49,43,31,47,9,33,100,67,1,30.32,30.05,7,1,0,0.00
2014-10-22,59,41,26,43,12,25,100,51,1,30.41,30.24,8,2,12,0.00
2014-10-23,52,46,37,43,7,34,100,72,1,30.24,30.06,9,1,13,0.12
2014-10-24,62,53,48,59,11,48,100,64,1,30.08,29.90,6,1,0,0.00
2014-10-25,67,58,49,65,23,31,100,54,1,29.99,29.88,17,4,21,0.01
2014-10-26,64,51,34,57,15,26,100,67,24,30.05,29.81,7,1,0,0.00
2014-10-27,74,63,49,65,50,40,100,73,62,29.81,29.51,12,4,16,0.08
2014-10-28,66,51,45,59,13,37,100,69,1,29.91,29.56,18,5,21,0.00
2014-10-29,47,41,30,47,19,30,100,77,1,30.17,29.91,17,4,20,0.00
2014-10-30,49,40,31,46,7,34,100,31,1,30.16,30.09,15,1,18,0.00
2014-10-31,44,34,27,42,10,21,100,58,1,30.49,30.10,21,8,31,0.00
2014-11-1,44,32,22,44,8,18,100,77,1,30.56,30.43,4,1,0,0.00
2014-11-2,53,41,29,51,11,25,100,32,1,30.43,30.10,15,4,18,0.00
2014-11-3,60,50,40,54,32,27,100,64,52,30.12,29.84,15,3,17,0.18
2014-11-4,59,50,40,57,41,34,100,79,56,30.04,29.77,13,5,20,0.01
2014-11-5,53,45,36,50,34,32,100,76,1,30.13,29.81,15,2,16,0.06
2014-11-6,46,38,33,43,26,27,100,85,1,30.28,29.80,17,7,25,0.04
2014-11-7,43,37,30,35,11,27,100,52,1,30.25,29.75,11,3,17,0.02
2014-11-8,44,40,35,38,21,26,100,78,1,29.97,29.71,17,5,22,0.04
2014-11-9,49,41,35,36,16,32,100,67,1,29.92,29.74,15,3,21,0.03
2014-11-10,57,44,37,57,22,38,100,54,1,29.86,29.49,13,2,16,0.01
2014-11-11,39,34,25,38,7,19,100,34,1,30.18,29.62,17,7,25,0.03
2014-11-12,27,23,19,19,16,14,100,74,1,30.35,30.19,10,4,17,0.00
2014-11-13,27,24,22,20,17,14,89,76,64,30.37,30.32,12,4,18,0.00
2014-11-14,24,20,9,18,14,6,91,78,61,30.43,30.36,7,1,0,0.00
2014-11-15,26,18,6,20,13,4,92,82,53,30.44,30.26,5,1,0,0.00
2014-11-16,27,21,9,24,18,5,93,86,79,30.26,29.93,10,2,14,0.00
2014-11-17,15,10,7,8,5,4,89,79,66,30.00,29.87,12,4,19,0.00
2014-11-18,17,13,8,10,6,3,83,74,63,30.13,29.99,12,4,15,0.00
2014-11-19,26,20,16,19,14,10,88,76,65,30.04,29.82,15,4,23,0.00
2014-11-20,23,16,7,14,7,1,84,66,42,30.40,30.00,14,4,19,0.00
2014-11-21,32,19,0,20,8,-3,90,63,42,30.49,30.16,14,3,18,0.00
2014-11-22,50,39,30,49,38,21,98,94,65,30.16,29.77,13,4,17,0.00
2014-11-23,50,48,45,49,47,44,98,97,93,29.77,29.12,14,4,16,0.85
2014-11-24,45,33,21,44,32,19,98,96,94,29.82,29.07,13,4,18,0.05
2014-11-25,23,19,11,19,17,9,94,90,84,30.25,29.82,8,2,0,0.00
2014-11-26,23,15,7,21,13,5,95,92,89,30.32,30.20,4,0,0,0.00
2014-11-27,23,16,3,21,12,0,95,86,77,30.49,30.32,9,2,14,0.00
2014-11-28,29,21,11,28,17,6,95,85,75,30.45,29.87,12,3,15,0.00
2014-11-29,44,37,28,42,35,27,98,93,83,29.87,29.54,10,3,13,0.04
2014-11-30,42,28,14,42,24,6,98,84,66,30.44,29.60,14,6,22,0.01
2014-12-1,14,10,4,7,0,-2,81,66,54,30.77,30.44,14,4,19,0.00
2014-12-2,32,23,8,22,17,3,86,77,66,30.65,30.07,12,3,14,0.00
2014-12-3,31,25,18,22,16,10,86,69,47,30.42,30.06,18,2,18,0.00
2014-12-4,29,22,15,25,15,10,87,76,60,30.50,30.30,6,1,0,0.00
2014-12-5,35,32,29,32,30,25,96,91,83,30.35,30.22,8,1,0,0.00
2014-12-6,35,28,18,30,24,15,93,85,66,30.75,30.35,11,2,17,0.00
2014-12-7,35,28,16,27,21,14,94,78,53,30.72,30.28,13,3,15,0.00
2014-12-8,34,33,31,33,31,27,97,95,86,30.27,29.99,14,3,16,0.40
2014-12-9,34,31,27,30,28,24,95,89,80,30.47,30.19,17,4,17,0.00
2014-12-10,27,24,22,24,21,19,91,89,87,30.49,30.35,4,1,0,0.00
2014-12-11,30,24,20,25,21,19,95,91,82,30.35,30.27,7,2,0,0.00
2014-12-12,35,31,24,34,30,22,97,95,93,30.37,30.25,7,2,0,0.01
2014-12-13,44,39,33,43,38,32,98,98,96,30.26,30.08,5,1,0,0.00
2014-12-14,46,44,42,46,44,41,99,99,98,30.09,29.97,8,2,0,0.02
2014-12-15,45,44,42,45,44,41,99,99,98,29.96,29.68,11,2,13,0.18
2014-12-16,42,34,25,42,31,20,99,91,80,30.20,29.67,16,6,23,0.11
2014-12-17,25,22,17,20,18,14,88,82,76,30.37,30.19,15,4,19,0.00
2014-12-18,26,22,14,24,20,13,94,91,86,30.38,30.30,5,0,0,0.00
2014-12-19,27,26,23,23,22,20,92,86,81,30.38,30.31,2,0,0,0.00
2014-12-20,30,28,23,28,26,21,93,92,88,30.34,30.25,4,1,0,0.00
2014-12-21,36,34,30,34,31,28,97,92,87,30.25,29.99,13,4,17,0.01
2014-12-22,38,35,33,38,33,31,98,93,86,29.99,29.62,11,3,15,0.20
2014-12-23,43,40,37,42,38,36,99,96,91,29.78,29.54,12,3,18,0.37
2014-12-24,37,35,33,36,34,32,98,96,92,29.75,29.53,7,2,0,0.01
2014-12-25,41,36,31,36,32,28,94,86,76,29.98,29.66,12,4,17,0.00
2014-12-26,44,37,32,38,35,30,97,91,78,30.05,29.95,6,1,0,0.00
2014-12-27,46,35,25,45,29,21,98,86,1,30.17,29.87,13,3,19,0.07
2014-12-28,31,24,16,23,19,13,90,82,67,30.35,30.15,7,2,0,0.00
2014-12-29,24,18,7,18,11,2,89,75,54,30.65,30.34,11,4,15,0.00
2014-12-30,13,7,1,2,-3,-7,84,63,42,30.80,30.66,13,4,19,0.00
2014-12-31,18,9,-2,8,1,-6,82,69,50,30.69,30.12,19,6,23,0.00
2015-1-1,29,21,12,20,14,7,83,75,63,30.19,29.96,12,3,18,0.00
2015-1-2,31,25,16,22,18,12,89,77,55,30.37,30.19,6,0,0,0.00